Time;durP1;ratioP1;P1;durP2;ratioP2;P2;SDS_P1;SDS_P2;PMS_P1;PMS_P2;Temp;Humidity;BMP_temperature;BMP_pressure;BME280_temperature;BME280_humidity;BME280_pressure;Samples;Min_cycle;Max_cycle;Signal;HPM_P1;HPM_P2
2023/05/16 00:00:08;;;;;;;6.32;1.60;;;13.40;78.60;;;;;;5112956;28;20827;-82
2023/05/16 00:02:38;;;;;;;6.47;1.90;;;13.40;78.80;;;;;;5114443;28;20011;-83
2023/05/16 00:05:06;;;;;;;6.20;1.70;;;13.40;78.40;;;;;;5113085;28;20050;-83
2023/05/16 00:07:33;;;;;;;8.85;1.88;;;13.40;78.30;;;;;;5114061;28;20024;-82
2023/05/16 00:09:59;;;;;;;5.40;1.20;;;13.40;78.40;;;;;;5095983;28;20388;-82
2023/05/16 00:12:25;;;;;;;6.32;1.52;;;13.40;78.40;;;;;;5095820;28;20020;-83
2023/05/16 00:14:51;;;;;;;6.28;1.60;;;13.40;78.60;;;;;;5113984;28;20028;-82
2023/05/16 00:17:19;;;;;;;8.15;1.90;;;13.40;78.40;;;;;;5095884;28;20039;-82
2023/05/16 00:19:47;;;;;;;8.15;2.38;;;13.30;79.20;;;;;;5096045;28;20038;-82
2023/05/16 00:22:14;;;;;;;4.47;1.60;;;13.30;78.30;;;;;;5096360;28;20016;-82
2023/05/16 00:24:40;;;;;;;6.43;2.13;;;13.30;78.30;;;;;;5096021;28;20397;-82
2023/05/16 00:27:06;;;;;;;2.22;1.08;;;13.30;78.30;;;;;;5113619;28;20027;-82
2023/05/16 00:29:34;;;;;;;8.35;1.40;;;13.30;78.30;;;;;;5095670;28;20024;-82
2023/05/16 00:32:00;;;;;;;9.73;2.70;;;13.30;78.40;;;;;;5112559;28;20423;-82
2023/05/16 00:34:25;;;;;;;9.60;1.90;;;13.30;78.30;;;;;;5112388;28;20051;-82
2023/05/16 00:36:52;;;;;;;6.43;1.65;;;13.30;78.10;;;;;;5113742;28;20027;-82
2023/05/16 00:39:17;;;;;;;4.57;1.67;;;13.30;77.90;;;;;;5112177;28;20036;-82
2023/05/16 00:41:44;;;;;;;6.03;1.48;;;13.30;77.90;;;;;;5095545;28;20022;-82
2023/05/16 00:44:09;;;;;;;8.13;1.45;;;13.30;77.80;;;;;;5112149;28;20031;-82
2023/05/16 00:46:36;;;;;;;6.45;1.45;;;13.30;77.90;;;;;;5095240;28;20038;-82
2023/05/16 00:49:02;;;;;;;4.20;1.30;;;13.20;77.80;;;;;;5112152;27;20472;-82
2023/05/16 00:51:28;;;;;;;7.97;1.80;;;13.20;77.90;;;;;;5112146;28;20019;-82
2023/05/16 00:53:55;;;;;;;5.55;1.35;;;13.20;77.90;;;;;;5111988;28;20516;-82
2023/05/16 00:56:21;;;;;;;6.63;1.58;;;13.20;77.80;;;;;;5112035;28;20061;-82
2023/05/16 00:58:48;;;;;;;6.63;1.83;;;13.20;78.10;;;;;;5112075;28;20047;-82
2023/05/16 01:01:14;;;;;;;8.93;2.17;;;13.20;78.10;;;;;;5112123;28;20035;-82
2023/05/16 01:03:41;;;;;;;9.20;1.52;;;13.10;78.10;;;;;;5095024;28;20477;-82
2023/05/16 01:06:07;;;;;;;7.90;1.48;;;13.10;77.90;;;;;;5112024;28;20035;-82
2023/05/16 01:08:32;;;;;;;6.18;1.77;;;13.10;77.90;;;;;;5094955;28;20028;-83
2023/05/16 01:11:22;;;;;;;7.95;1.77;;;13.10;78.10;;;;;;5094932;28;20481;-82
2023/05/16 01:14:01;;;;;;;9.82;1.70;;;13.10;78.30;;;;;;5104400;28;20024;-83
2023/05/16 01:16:38;;;;;;;7.45;1.58;;;13.00;78.20;;;;;;5111875;28;20384;-82
2023/05/16 01:19:20;;;;;;;6.13;1.52;;;13.00;78.40;;;;;;5113015;28;20031;-82
2023/05/16 01:22:01;;;;;;;4.77;1.60;;;13.00;78.40;;;;;;5112766;28;20328;-82
2023/05/16 01:24:37;;;;;;;6.20;1.70;;;13.00;78.60;;;;;;5113060;28;20031;-82
2023/05/16 01:27:04;;;;;;;10.75;1.73;;;12.90;78.60;;;;;;5111634;28;20050;-82
2023/05/16 01:29:31;;;;;;;5.97;1.90;;;12.90;78.70;;;;;;5111768;28;20023;-82
2023/05/16 01:31:57;;;;;;;10.80;1.55;;;12.90;78.70;;;;;;5111708;28;20032;-82
2023/05/16 01:34:23;;;;;;;10.27;1.98;;;12.90;78.80;;;;;;5111629;28;20073;-82
2023/05/16 01:37:07;;;;;;;4.85;1.70;;;12.90;78.80;;;;;;5112901;28;20023;-82
2023/05/16 01:39:38;;;;;;;6.82;1.50;;;12.90;78.80;;;;;;5111549;28;20058;-82
2023/05/16 01:42:11;;;;;;;6.13;1.77;;;12.80;78.90;;;;;;5111673;28;20039;-82
2023/05/16 01:44:47;;;;;;;5.97;1.60;;;12.70;79.10;;;;;;5111943;28;20077;-82
2023/05/16 01:47:16;;;;;;;6.97;2.03;;;12.70;79.30;;;;;;5111443;28;20020;-82
2023/05/16 01:50:14;;;;;;;7.18;1.70;;;12.70;79.50;;;;;;5111436;28;20020;-82
2023/05/16 01:52:55;;;;;;;8.18;1.73;;;12.70;79.50;;;;;;5111390;28;20058;-82
2023/05/16 01:55:29;;;;;;;4.18;1.38;;;12.60;79.60;;;;;;5111293;28;20018;-82
2023/05/16 01:57:57;;;;;;;5.68;1.40;;;12.60;79.80;;;;;;5111421;28;20058;-82
2023/05/16 02:00:23;;;;;;;8.60;1.67;;;12.60;80.00;;;;;;5094760;28;20097;-82
2023/05/16 02:02:48;;;;;;;8.32;1.80;;;12.60;80.00;;;;;;5111343;28;20473;-82
2023/05/16 02:05:14;;;;;;;7.45;2.00;;;12.60;80.00;;;;;;5094359;28;20380;-82
2023/05/16 02:07:40;;;;;;;8.57;1.80;;;12.60;80.00;;;;;;5094226;28;20023;-82
2023/05/16 02:10:06;;;;;;;7.57;1.88;;;12.50;80.00;;;;;;5094364;28;20023;-82
2023/05/16 02:12:32;;;;;;;5.35;1.70;;;12.50;80.10;;;;;;5094398;28;20472;-82
2023/05/16 02:14:58;;;;;;;8.13;1.58;;;12.50;80.20;;;;;;5094132;28;20019;-82
2023/05/16 02:17:23;;;;;;;7.13;1.58;;;12.50;80.10;;;;;;5094177;28;20032;-82
2023/05/16 02:19:49;;;;;;;7.85;1.75;;;12.50;80.10;;;;;;5094357;28;20118;-82
2023/05/16 02:22:15;;;;;;;6.40;1.48;;;12.50;80.20;;;;;;5094459;28;20146;-82
2023/05/16 02:24:40;;;;;;;8.70;1.80;;;12.50;80.20;;;;;;5111228;28;20066;-82
2023/05/16 02:27:06;;;;;;;5.78;1.65;;;12.40;80.30;;;;;;5094082;28;20053;-82
2023/05/16 02:29:31;;;;;;;7.78;2.10;;;12.40;80.30;;;;;;5094128;28;20030;-83
2023/05/16 02:31:57;;;;;;;5.40;1.38;;;12.40;80.40;;;;;;5094124;28;20046;-82
2023/05/16 02:34:23;;;;;;;6.18;1.27;;;12.40;80.60;;;;;;5094958;28;20042;-82
2023/05/16 02:36:48;;;;;;;12.77;1.42;;;12.30;80.60;;;;;;5097795;28;20030;-82
2023/05/16 02:39:14;;;;;;;7.85;1.85;;;12.30;80.80;;;;;;5114481;28;20066;-82
2023/05/16 02:41:40;;;;;;;6.05;1.58;;;12.30;81.10;;;;;;5115953;28;20589;-82
2023/05/16 02:44:06;;;;;;;7.55;1.35;;;12.20;81.10;;;;;;5097642;28;20024;-82
2023/05/16 02:46:33;;;;;;;6.38;1.50;;;12.20;81.30;;;;;;5097452;28;20054;-82
2023/05/16 02:49:00;;;;;;;5.43;1.42;;;12.20;81.50;;;;;;5114431;28;20446;-82
2023/05/16 02:51:27;;;;;;;7.88;1.50;;;12.10;81.50;;;;;;5114347;28;20015;-82
2023/05/16 02:53:55;;;;;;;11.95;1.60;;;12.10;81.70;;;;;;5114437;28;20553;-82
2023/05/16 02:56:21;;;;;;;6.75;1.55;;;12.10;81.80;;;;;;5115537;28;20020;-82
2023/05/16 02:58:48;;;;;;;6.55;1.30;;;12.10;81.70;;;;;;5114352;28;20363;-82
2023/05/16 03:01:14;;;;;;;5.95;1.15;;;12.00;81.70;;;;;;5097267;28;20373;-82
2023/05/16 03:03:40;;;;;;;8.02;2.00;;;12.00;81.80;;;;;;5114149;28;20024;-82
2023/05/16 03:06:06;;;;;;;4.13;1.27;;;12.00;82.00;;;;;;5097281;28;20031;-82
2023/05/16 03:08:32;;;;;;;5.13;1.60;;;12.00;82.10;;;;;;5113987;28;20103;-82
2023/05/16 03:10:58;;;;;;;6.70;1.15;;;11.90;82.10;;;;;;5097128;28;20058;-82
2023/05/16 03:13:24;;;;;;;4.75;1.13;;;11.90;82.10;;;;;;5115229;28;20039;-82
2023/05/16 03:15:50;;;;;;;5.88;1.30;;;11.90;82.10;;;;;;5096801;28;20024;-82
2023/05/16 03:18:15;;;;;;;4.82;1.02;;;11.90;82.10;;;;;;5113713;28;20016;-82
2023/05/16 03:20:41;;;;;;;7.07;1.67;;;11.90;83.00;;;;;;5113900;28;20035;-82
2023/05/16 03:23:07;;;;;;;8.82;1.80;;;11.90;82.20;;;;;;5113917;27;20028;-82
2023/05/16 03:25:36;;;;;;;6.40;1.42;;;11.80;82.20;;;;;;5113747;28;20078;-82
2023/05/16 03:28:04;;;;;;;4.95;1.38;;;11.90;82.30;;;;;;5096770;28;20027;-82
2023/05/16 03:30:30;;;;;;;8.10;1.38;;;11.80;82.20;;;;;;5113612;28;20019;-82
2023/05/16 03:32:55;;;;;;;8.60;1.30;;;11.80;82.20;;;;;;5096603;28;20279;-82
2023/05/16 03:35:22;;;;;;;8.85;1.83;;;11.80;82.10;;;;;;5096556;28;20024;-82
2023/05/16 03:37:47;;;;;;;6.90;1.80;;;11.80;82.30;;;;;;5113680;28;20028;-82
2023/05/16 03:40:13;;;;;;;5.60;1.10;;;11.70;82.30;;;;;;5096442;28;20097;-82
2023/05/16 03:42:39;;;;;;;6.88;1.08;;;11.70;82.40;;;;;;5113491;28;20035;-82
2023/05/16 03:45:05;;;;;;;4.22;0.98;;;11.70;82.50;;;;;;5096025;28;20122;-82
2023/05/16 03:47:31;;;;;;;9.52;1.60;;;11.70;82.50;;;;;;5096352;28;20027;-82
2023/05/16 03:49:57;;;;;;;6.10;1.42;;;11.70;82.60;;;;;;5096328;28;20035;-82
2023/05/16 03:52:23;;;;;;;6.07;1.50;;;11.70;82.50;;;;;;5113252;28;20111;-82
2023/05/16 03:54:49;;;;;;;3.80;1.00;;;11.80;82.60;;;;;;5113272;28;20102;-82
2023/05/16 03:57:15;;;;;;;5.30;1.65;;;11.80;82.50;;;;;;5113119;28;20020;-82
2023/05/16 03:59:41;;;;;;;5.93;1.60;;;11.80;82.30;;;;;;5096132;28;20027;-82
2023/05/16 04:02:07;;;;;;;6.60;1.52;;;11.80;82.30;;;;;;5114277;28;20376;-82
2023/05/16 04:04:33;;;;;;;5.60;1.00;;;11.80;82.20;;;;;;5095910;28;20027;-83
2023/05/16 04:06:58;;;;;;;4.78;1.75;;;11.80;82.20;;;;;;5096010;28;20034;-82
2023/05/16 04:09:24;;;;;;;8.93;1.33;;;11.80;82.00;;;;;;5112774;27;20510;-82
2023/05/16 04:11:50;;;;;;;5.93;1.30;;;11.80;82.00;;;;;;5112864;28;20027;-82
2023/05/16 04:14:16;;;;;;;4.72;1.42;;;11.70;82.00;;;;;;5095759;28;20047;-82
2023/05/16 04:16:41;;;;;;;4.38;1.15;;;11.70;82.10;;;;;;5129872;27;20548;-82
2023/05/16 04:19:07;;;;;;;5.03;1.55;;;11.70;82.20;;;;;;5116047;27;20028;-82
2023/05/16 04:21:34;;;;;;;6.38;1.20;;;11.70;82.20;;;;;;5133239;27;20396;-82
2023/05/16 04:24:00;;;;;;;8.30;1.92;;;11.70;82.20;;;;;;5133104;27;20527;-82
2023/05/16 04:26:26;;;;;;;4.40;1.38;;;11.70;82.30;;;;;;5132115;27;20102;-82
2023/05/16 04:28:52;;;;;;;8.60;1.70;;;11.70;82.20;;;;;;5132877;27;20031;-82
2023/05/16 04:31:18;;;;;;;7.22;1.42;;;11.70;82.20;;;;;;5132106;27;20353;-82
2023/05/16 04:33:43;;;;;;;7.15;1.77;;;11.70;82.30;;;;;;5115867;27;20126;-82
2023/05/16 04:36:09;;;;;;;6.32;1.30;;;11.70;82.20;;;;;;5132864;27;20046;-82
2023/05/16 04:38:35;;;;;;;8.55;1.48;;;11.70;82.10;;;;;;5087215;27;20110;-81
2023/05/16 04:41:02;;;;;;;7.35;1.50;;;11.60;82.20;;;;;;5115475;27;20031;-82
2023/05/16 04:43:27;;;;;;;8.80;1.63;;;11.70;82.30;;;;;;5115806;27;20023;-82
2023/05/16 04:45:53;;;;;;;6.25;1.50;;;11.60;82.30;;;;;;5098175;27;20027;-82
2023/05/16 04:48:18;;;;;;;4.25;1.45;;;11.60;82.20;;;;;;5115594;27;20027;-82
2023/05/16 04:50:44;;;;;;;6.85;1.50;;;11.60;82.30;;;;;;5115526;27;20027;-82
2023/05/16 04:53:10;;;;;;;6.05;1.52;;;11.60;82.40;;;;;;5115604;27;20019;-82
2023/05/16 04:55:36;;;;;;;5.63;1.30;;;11.50;83.30;;;;;;5098586;27;20023;-82
2023/05/16 04:58:01;;;;;;;7.40;1.35;;;11.60;82.50;;;;;;5097414;27;20260;-82
2023/05/16 05:00:27;;;;;;;6.38;1.60;;;11.60;82.50;;;;;;5115373;27;20476;-82
2023/05/16 05:02:53;;;;;;;4.10;1.40;;;11.60;82.50;;;;;;5098504;27;20038;-82
2023/05/16 05:05:19;;;;;;;5.57;1.35;;;11.50;82.40;;;;;;5132549;27;20386;-82
2023/05/16 05:07:45;;;;;;;6.57;1.67;;;11.50;82.50;;;;;;5132250;27;20039;-82
2023/05/16 05:10:11;;;;;;;6.28;1.45;;;11.50;82.70;;;;;;5115326;28;20380;-82
2023/05/16 05:12:37;;;;;;;7.65;2.00;;;11.50;82.70;;;;;;5098294;27;20023;-82
2023/05/16 05:15:03;;;;;;;5.78;1.33;;;11.50;82.60;;;;;;5115009;28;20026;-82
2023/05/16 05:17:29;;;;;;;6.35;1.90;;;11.50;82.70;;;;;;5115301;27;20031;-82
2023/05/16 05:19:54;;;;;;;3.90;1.70;;;11.50;82.90;;;;;;5115181;28;20031;-82
2023/05/16 05:22:20;;;;;;;4.63;1.63;;;11.50;82.90;;;;;;5115239;28;20029;-82
2023/05/16 05:24:46;;;;;;;7.60;1.58;;;11.60;82.80;;;;;;5098192;28;20035;-82
2023/05/16 05:27:12;;;;;;;7.50;2.00;;;11.60;82.80;;;;;;5114995;28;20098;-82
2023/05/16 05:29:37;;;;;;;5.53;1.65;;;11.60;82.90;;;;;;5132148;27;20483;-82
2023/05/16 05:32:04;;;;;;;9.63;2.00;;;11.60;82.90;;;;;;5132339;28;20027;-82
2023/05/16 05:34:30;;;;;;;4.78;1.52;;;11.70;82.80;;;;;;5132172;27;20476;-82
2023/05/16 05:36:56;;;;;;;7.82;1.65;;;11.70;82.70;;;;;;5115026;28;20023;-83
2023/05/16 05:39:23;;;;;;;4.32;1.55;;;11.70;82.40;;;;;;5114967;28;20058;-82
2023/05/16 05:41:48;;;;;;;6.85;1.63;;;11.70;82.20;;;;;;5115197;28;20027;-82
2023/05/16 05:44:14;;;;;;;6.57;1.77;;;11.70;82.00;;;;;;5132277;28;20035;-82
2023/05/16 05:46:40;;;;;;;4.55;1.30;;;11.80;82.20;;;;;;5097962;28;20396;-82
2023/05/16 05:49:06;;;;;;;6.05;1.67;;;11.80;82.20;;;;;;5115001;28;20023;-83
2023/05/16 05:51:31;;;;;;;5.10;1.73;;;11.80;82.10;;;;;;5114977;28;20080;-83
2023/05/16 05:53:57;;;;;;;6.53;1.65;;;11.90;82.00;;;;;;5114966;28;20023;-82
2023/05/16 05:56:25;;;;;;;8.73;1.98;;;11.90;81.80;;;;;;5097854;28;20024;-83
2023/05/16 05:58:51;;;;;;;4.75;1.50;;;11.90;81.60;;;;;;5115265;28;20028;-82
2023/05/16 06:01:17;;;;;;;4.93;1.40;;;11.80;81.50;;;;;;5114860;28;20050;-82
2023/05/16 06:03:43;;;;;;;10.00;1.65;;;11.90;81.70;;;;;;5114921;28;20054;-82
2023/05/16 06:06:08;;;;;;;6.15;1.58;;;12.00;81.50;;;;;;5114940;28;20066;-83
2023/05/16 06:08:34;;;;;;;2.88;1.33;;;12.00;81.60;;;;;;5098828;27;20039;-82
2023/05/16 06:11:00;;;;;;;5.03;1.42;;;12.00;81.50;;;;;;5118628;27;20027;-82
2023/05/16 06:13:26;;;;;;;3.53;1.20;;;12.00;81.70;;;;;;5101741;27;20038;-83
2023/05/16 06:15:52;;;;;;;5.95;1.48;;;12.10;81.60;;;;;;5135544;27;20023;-82
2023/05/16 06:18:18;;;;;;;5.68;1.52;;;12.10;81.40;;;;;;5101664;27;20031;-82
2023/05/16 06:20:44;;;;;;;6.15;1.48;;;12.10;81.40;;;;;;5118803;27;20031;-83
2023/05/16 06:23:10;;;;;;;7.25;1.40;;;12.10;81.00;;;;;;5118383;27;20030;-82
2023/05/16 06:25:36;;;;;;;5.43;1.20;;;12.20;81.10;;;;;;5135279;27;20481;-83
2023/05/16 06:28:01;;;;;;;6.25;1.52;;;12.20;80.90;;;;;;5135404;27;20137;-83
2023/05/16 06:30:27;;;;;;;6.90;1.60;;;12.30;80.90;;;;;;5135499;27;20053;-82
2023/05/16 06:32:53;;;;;;;3.22;1.38;;;12.30;81.20;;;;;;5135532;27;20024;-82
2023/05/16 06:35:19;;;;;;;6.00;1.52;;;12.40;80.60;;;;;;5135218;27;20016;-83
2023/05/16 06:37:44;;;;;;;3.92;1.20;;;12.40;80.10;;;;;;5135189;27;20114;-82
2023/05/16 06:40:11;;;;;;;7.82;1.00;;;12.40;80.10;;;;;;5117945;27;20501;-82
2023/05/16 06:42:36;;;;;;;3.28;1.17;;;12.50;80.40;;;;;;5136447;27;20019;-82
2023/05/16 06:45:02;;;;;;;5.18;1.17;;;12.50;80.30;;;;;;5118037;27;20023;-82
2023/05/16 06:47:28;;;;;;;3.92;1.40;;;12.50;79.70;;;;;;5117900;27;20441;-83
2023/05/16 06:49:54;;;;;;;7.38;1.20;;;12.60;79.90;;;;;;5117941;27;20118;-83
2023/05/16 06:52:20;;;;;;;4.10;1.00;;;12.60;79.30;;;;;;5136246;27;20055;-83
2023/05/16 06:54:46;;;;;;;6.07;1.30;;;12.60;79.80;;;;;;5117795;27;20118;-83
2023/05/16 06:57:12;;;;;;;5.47;1.05;;;12.60;78.80;;;;;;5117853;27;20074;-82
2023/05/16 06:59:38;;;;;;;6.55;1.35;;;12.60;78.60;;;;;;5100896;27;20019;-82
2023/05/16 07:02:04;;;;;;;5.25;1.20;;;12.50;78.30;;;;;;5134675;27;20027;-82
2023/05/16 07:04:30;;;;;;;5.38;1.20;;;12.60;78.90;;;;;;5100725;27;20342;-82
2023/05/16 07:06:56;;;;;;;1.98;0.95;;;12.70;78.50;;;;;;5134817;27;20022;-82
2023/05/16 07:09:22;;;;;;;5.10;1.38;;;12.60;78.40;;;;;;5117478;27;20027;-82
2023/05/16 07:11:47;;;;;;;5.35;1.35;;;12.70;78.50;;;;;;5135129;27;20035;-83
2023/05/16 07:14:13;;;;;;;7.82;1.52;;;12.80;78.70;;;;;;5117485;27;20481;-82
2023/05/16 07:16:39;;;;;;;3.53;1.10;;;12.90;78.50;;;;;;5117469;27;20027;-82
2023/05/16 07:19:04;;;;;;;4.07;0.95;;;13.00;78.50;;;;;;5117281;27;20031;-83
2023/05/16 07:21:30;;;;;;;5.63;1.25;;;13.00;78.30;;;;;;5099738;27;20023;-83
2023/05/16 07:23:56;;;;;;;5.15;0.90;;;13.00;77.60;;;;;;5117279;27;20049;-83
2023/05/16 07:26:22;;;;;;;5.47;1.02;;;13.10;77.10;;;;;;5134342;27;20476;-83
2023/05/16 07:28:51;;;;;;;4.47;1.30;;;13.10;76.30;;;;;;5117341;27;20035;-83
2023/05/16 07:31:17;;;;;;;8.00;1.15;;;13.10;75.80;;;;;;5134328;27;20105;-83
2023/05/16 07:33:45;;;;;;;4.00;1.20;;;13.10;76.00;;;;;;5134216;27;20021;-83
2023/05/16 07:36:12;;;;;;;8.45;1.33;;;13.20;75.80;;;;;;5134060;27;20426;-83
2023/05/16 07:38:37;;;;;;;5.75;1.00;;;13.20;76.30;;;;;;5133935;27;20047;-83
2023/05/16 07:41:03;;;;;;;4.63;0.80;;;13.30;75.40;;;;;;5099934;27;20471;-83
2023/05/16 07:43:29;;;;;;;6.45;0.90;;;13.30;75.50;;;;;;5099853;27;20027;-83
2023/05/16 07:45:54;;;;;;;5.70;1.17;;;13.40;75.40;;;;;;5099926;27;20042;-83
2023/05/16 07:48:20;;;;;;;5.15;1.27;;;13.30;74.90;;;;;;5099697;27;20035;-83
2023/05/16 07:50:46;;;;;;;5.43;1.30;;;13.30;74.20;;;;;;5134024;27;20469;-83
2023/05/16 07:53:12;;;;;;;4.53;1.30;;;13.30;74.10;;;;;;5134161;27;20027;-83
2023/05/16 07:55:37;;;;;;;4.13;1.08;;;13.30;74.30;;;;;;5116638;27;20023;-83
2023/05/16 07:58:03;;;;;;;4.30;0.90;;;13.30;74.30;;;;;;5116592;27;20019;-83
2023/05/16 08:00:29;;;;;;;5.32;0.90;;;13.40;73.60;;;;;;5134935;27;20038;-83
2023/05/16 08:02:56;;;;;;;1.77;0.80;;;13.30;72.40;;;;;;5116483;27;20031;-83
2023/05/16 08:05:24;;;;;;;4.18;1.05;;;13.30;72.10;;;;;;5099576;27;20027;-83
2023/05/16 08:07:50;;;;;;;4.53;0.80;;;13.30;71.90;;;;;;5099857;27;20019;-83
2023/05/16 08:10:15;;;;;;;3.92;0.85;;;13.30;72.30;;;;;;5133481;27;20031;-83
2023/05/16 08:12:41;;;;;;;6.15;1.00;;;13.40;72.50;;;;;;5099310;27;20122;-83
2023/05/16 08:15:08;;;;;;;2.45;1.20;;;13.40;71.90;;;;;;5099320;27;20365;-83
2023/05/16 08:17:33;;;;;;;5.25;1.27;;;13.40;71.00;;;;;;5133418;27;20080;-83
2023/05/16 08:20:00;;;;;;;5.95;0.90;;;13.50;72.00;;;;;;5116103;27;20039;-83
2023/05/16 08:22:26;;;;;;;3.53;0.60;;;13.60;72.30;;;;;;5116494;27;20357;-83
2023/05/16 08:24:56;;;;;;;2.75;0.70;;;13.70;72.20;;;;;;5099156;27;20023;-83
2023/05/16 08:27:24;;;;;;;4.13;0.85;;;13.70;72.00;;;;;;5116540;27;20076;-83
2023/05/16 08:29:50;;;;;;;5.38;0.85;;;13.90;71.50;;;;;;5098948;27;20016;-83
2023/05/16 08:32:16;;;;;;;3.30;1.05;;;13.90;70.80;;;;;;5132233;27;20030;-83
2023/05/16 08:34:41;;;;;;;1.80;0.70;;;14.00;70.60;;;;;;5115877;27;20083;-83
2023/05/16 08:37:07;;;;;;;2.72;0.60;;;14.00;70.90;;;;;;5115997;27;20025;-83
2023/05/16 08:39:32;;;;;;;2.42;0.82;;;14.00;69.80;;;;;;5115735;27;20059;-83
2023/05/16 08:41:59;;;;;;;1.83;0.52;;;14.00;69.80;;;;;;5098784;27;20026;-84
2023/05/16 08:44:25;;;;;;;1.70;0.57;;;13.90;70.70;;;;;;5132785;27;20373;-83
2023/05/16 08:46:52;;;;;;;3.60;1.00;;;13.90;68.90;;;;;;5132671;27;20480;-83
2023/05/16 08:49:18;;;;;;;2.55;0.85;;;14.00;68.40;;;;;;5132605;27;20023;-81
2023/05/16 08:51:46;;;;;;;4.95;0.73;;;14.10;68.60;;;;;;5132598;27;20176;-81
2023/05/16 08:54:13;;;;;;;2.60;0.40;;;14.30;69.10;;;;;;5132604;27;20026;-83
2023/05/16 08:56:41;;;;;;;3.50;0.70;;;14.40;68.40;;;;;;5132693;27;20415;-83
2023/05/16 08:59:07;;;;;;;3.92;0.77;;;14.50;67.70;;;;;;5132746;27;20046;-83
2023/05/16 09:01:33;;;;;;;2.08;0.70;;;14.60;68.30;;;;;;5132464;27;20105;-83
2023/05/16 09:03:59;;;;;;;2.30;0.77;;;14.70;67.80;;;;;;5133743;27;20583;-83
2023/05/16 09:06:26;;;;;;;1.67;0.70;;;14.70;66.40;;;;;;5132488;27;20049;-83
2023/05/16 09:08:54;;;;;;;4.82;0.77;;;14.60;65.10;;;;;;5133712;27;20023;-83
2023/05/16 09:11:20;;;;;;;2.20;0.60;;;14.60;65.90;;;;;;5115359;27;20072;-83
2023/05/16 09:13:47;;;;;;;3.63;0.82;;;14.70;66.80;;;;;;5098503;27;20031;-83
2023/05/16 09:16:13;;;;;;;1.50;0.60;;;14.80;66.10;;;;;;5115240;27;20122;-83
2023/05/16 09:18:41;;;;;;;1.30;0.50;;;14.80;66.30;;;;;;5132387;27;20114;-83
2023/05/16 09:21:10;;;;;;;2.88;0.60;;;14.80;66.50;;;;;;5132334;27;20022;-83
2023/05/16 09:23:36;;;;;;;6.88;0.80;;;14.80;66.00;;;;;;5132314;27;20429;-83
2023/05/16 09:26:03;;;;;;;3.25;0.77;;;14.70;65.70;;;;;;5132213;27;20556;-83
2023/05/16 09:28:29;;;;;;;2.83;0.60;;;14.60;66.50;;;;;;5133534;27;20472;-83
2023/05/16 09:30:58;;;;;;;4.90;0.70;;;14.60;67.30;;;;;;5132085;27;20055;-83
2023/05/16 09:33:25;;;;;;;1.17;0.82;;;14.50;67.10;;;;;;5115562;28;20019;-83
2023/05/16 09:35:56;;;;;;;2.33;0.70;;;14.50;67.30;;;;;;5133513;27;20464;-83
2023/05/16 09:38:21;;;;;;;2.08;0.50;;;14.50;66.70;;;;;;5132832;27;20035;-83
2023/05/16 09:40:49;;;;;;;1.85;0.43;;;14.50;67.50;;;;;;5096501;28;20445;-83
2023/05/16 09:43:15;;;;;;;1.92;0.55;;;14.50;67.40;;;;;;5131718;27;20038;-83
2023/05/16 09:45:46;;;;;;;3.28;0.60;;;14.50;67.20;;;;;;5117737;27;20484;-83
2023/05/16 09:48:13;;;;;;;2.80;0.60;;;14.50;67.30;;;;;;5117891;27;20035;-83
2023/05/16 09:50:41;;;;;;;1.75;0.40;;;14.50;66.00;;;;;;5136624;27;20020;-83
2023/05/16 09:53:07;;;;;;;1.38;0.30;;;14.50;65.50;;;;;;5135888;27;20043;-83
2023/05/16 09:55:33;;;;;;;1.40;0.30;;;14.50;64.70;;;;;;5118635;27;20310;-83
2023/05/16 09:57:58;;;;;;;3.42;0.68;;;14.40;64.60;;;;;;5117988;27;20081;-83
2023/05/16 10:00:32;;;;;;;1.40;0.40;;;14.50;64.40;;;;;;5135820;27;20035;-83
2023/05/16 10:02:59;;;;;;;2.30;0.50;;;14.50;64.70;;;;;;5136149;27;20027;-83
2023/05/16 10:05:30;;;;;;;1.15;0.30;;;14.50;65.00;;;;;;5135928;27;20109;-83
2023/05/16 10:07:56;;;;;;;4.93;0.80;;;14.60;64.40;;;;;;5116993;27;20023;-83
2023/05/16 10:10:23;;;;;;;2.38;0.38;;;14.80;64.30;;;;;;5098201;28;20526;-83
2023/05/16 10:12:50;;;;;;;4.20;0.70;;;14.90;64.40;;;;;;5098119;28;20023;-83
2023/05/16 10:15:16;;;;;;;2.80;0.50;;;15.20;64.90;;;;;;5116211;28;20472;-84
2023/05/16 10:17:44;;;;;;;4.68;0.90;;;15.30;64.60;;;;;;5114843;28;20024;-83
2023/05/16 10:20:11;;;;;;;4.32;1.27;;;15.40;65.20;;;;;;5114201;28;20022;-83
2023/05/16 10:22:43;;;;;;;5.45;1.20;;;15.50;65.10;;;;;;5115039;28;20027;-83
2023/05/16 10:25:21;;;;;;;2.60;0.67;;;15.60;65.70;;;;;;5115554;28;20016;-83
2023/05/16 10:27:47;;;;;;;4.63;0.80;;;15.70;64.40;;;;;;5116351;28;20285;-83
2023/05/16 10:30:15;;;;;;;2.53;0.57;;;15.70;64.50;;;;;;5098202;28;20024;-84
2023/05/16 10:32:42;;;;;;;4.40;1.23;;;15.60;64.30;;;;;;5098492;28;20388;-84
2023/05/16 10:35:09;;;;;;;6.03;0.80;;;15.50;65.30;;;;;;5097960;28;20050;-83
2023/05/16 10:37:35;;;;;;;3.47;0.93;;;15.50;65.40;;;;;;5114814;28;20076;-83
2023/05/16 10:40:04;;;;;;;4.20;0.80;;;15.50;66.20;;;;;;5097784;28;20051;-83
2023/05/16 10:42:33;;;;;;;5.88;0.75;;;15.60;66.00;;;;;;5081652;28;20388;-84
2023/05/16 10:45:19;;;;;;;2.20;0.57;;;15.70;64.80;;;;;;5114537;28;20016;-84
2023/05/16 10:47:52;;;;;;;5.10;1.00;;;15.90;62.70;;;;;;5115762;28;20050;-84
2023/05/16 10:50:42;;;;;;;2.40;0.77;;;16.00;61.90;;;;;;5114567;28;20027;-84
2023/05/16 10:53:28;;;;;;;2.00;0.50;;;16.10;61.00;;;;;;5115808;28;20068;-84
2023/05/16 10:56:00;;;;;;;2.05;0.77;;;16.30;62.70;;;;;;5113417;28;20030;-83
2023/05/16 10:58:33;;;;;;;1.38;0.50;;;16.40;61.90;;;;;;5114497;28;20131;-83
2023/05/16 11:01:25;;;;;;;2.63;0.50;;;16.30;62.40;;;;;;5115706;28;20050;-84
2023/05/16 11:04:03;;;;;;;1.52;0.60;;;16.30;60.30;;;;;;5114598;28;20046;-84
2023/05/16 11:06:34;;;;;;;2.75;0.75;;;16.40;60.90;;;;;;5114243;28;20062;-84
2023/05/16 11:09:09;;;;;;;4.63;0.75;;;16.50;60.80;;;;;;5114093;28;20433;-84
2023/05/16 11:11:52;;;;;;;3.45;0.50;;;16.60;56.60;;;;;;5115302;28;20036;-84
2023/05/16 11:14:22;;;;;;;2.58;0.70;;;16.60;54.30;;;;;;5114213;28;20020;-82
2023/05/16 11:17:02;;;;;;;2.10;0.45;;;16.60;55.20;;;;;;5114196;28;20543;-83
2023/05/16 11:19:30;;;;;;;2.45;0.60;;;16.70;55.70;;;;;;5113994;28;20027;-84
2023/05/16 11:22:09;;;;;;;0.75;0.40;;;16.80;55.90;;;;;;5131204;27;20049;-83
2023/05/16 11:24:37;;;;;;;3.83;0.70;;;17.00;56.30;;;;;;5113756;28;20027;-83
2023/05/16 11:27:04;;;;;;;3.08;0.68;;;17.20;56.00;;;;;;5097233;28;20110;-84
2023/05/16 11:29:36;;;;;;;2.72;0.52;;;17.20;55.40;;;;;;5096922;28;20032;-82
2023/05/16 11:32:04;;;;;;;2.67;0.73;;;17.10;50.80;;;;;;5079940;28;20116;-83
2023/05/16 11:34:31;;;;;;;4.47;0.60;;;17.10;51.10;;;;;;5096844;28;20040;-83
2023/05/16 11:36:58;;;;;;;1.90;0.40;;;17.00;52.20;;;;;;5113751;28;20020;-83
2023/05/16 11:39:24;;;;;;;2.63;0.77;;;17.10;52.40;;;;;;5096553;28;20135;-83
2023/05/16 11:41:52;;;;;;;1.98;0.70;;;17.10;52.50;;;;;;5113623;27;20122;-83
2023/05/16 11:44:17;;;;;;;2.50;0.80;;;17.10;50.80;;;;;;5113565;28;20040;-83
2023/05/16 11:46:43;;;;;;;1.85;0.60;;;17.20;51.20;;;;;;5113537;28;20030;-83
2023/05/16 11:49:11;;;;;;;2.45;0.60;;;17.20;51.90;;;;;;5113592;28;20057;-83
2023/05/16 11:51:42;;;;;;;2.35;1.05;;;17.20;50.10;;;;;;5113583;28;20469;-83
2023/05/16 11:54:10;;;;;;;1.75;0.70;;;17.30;51.40;;;;;;5096516;28;20024;-83
2023/05/16 11:56:36;;;;;;;7.75;1.20;;;17.30;51.90;;;;;;5096222;28;20050;-83
2023/05/16 11:59:02;;;;;;;1.85;0.80;;;17.20;51.90;;;;;;5113210;28;20047;-83
2023/05/16 12:01:38;;;;;;;1.58;0.50;;;17.20;52.10;;;;;;5113252;28;20535;-83
2023/05/16 12:04:12;;;;;;;2.70;0.68;;;17.20;52.10;;;;;;5114273;28;20495;-83
2023/05/16 12:06:38;;;;;;;3.15;0.88;;;17.10;52.50;;;;;;5095925;28;20035;-83
2023/05/16 12:09:11;;;;;;;4.97;0.77;;;17.10;52.00;;;;;;5095739;28;20085;-83
2023/05/16 12:11:42;;;;;;;4.25;1.00;;;17.00;53.20;;;;;;5096742;28;20020;-83
2023/05/16 12:14:12;;;;;;;1.73;0.70;;;17.00;53.10;;;;;;5095918;28;20050;-83
2023/05/16 12:16:41;;;;;;;3.10;0.82;;;16.90;52.20;;;;;;5096003;28;20481;-83
2023/05/16 12:19:07;;;;;;;3.05;0.70;;;16.80;51.60;;;;;;5096464;28;20055;-83
2023/05/16 12:21:34;;;;;;;3.63;0.70;;;16.80;52.60;;;;;;5095782;28;20047;-82
2023/05/16 12:23:59;;;;;;;6.03;0.80;;;16.80;52.20;;;;;;5095809;28;20028;-81
2023/05/16 12:26:29;;;;;;;2.15;0.60;;;16.80;52.80;;;;;;5078919;28;20175;-81
2023/05/16 12:28:59;;;;;;;3.47;0.77;;;16.80;52.50;;;;;;5096104;28;20123;-81
2023/05/16 12:31:25;;;;;;;2.13;0.70;;;16.80;53.60;;;;;;5079751;28;20047;-81
2023/05/16 12:33:54;;;;;;;2.70;0.50;;;16.90;53.70;;;;;;5113730;28;20043;-81
2023/05/16 12:36:20;;;;;;;2.22;0.90;;;16.90;53.60;;;;;;5095432;28;20036;-81
2023/05/16 12:38:47;;;;;;;3.58;1.25;;;16.90;54.30;;;;;;5095387;28;20030;-81
2023/05/16 12:41:22;;;;;;;3.28;0.70;;;16.90;53.30;;;;;;5112213;28;20489;-81
2023/05/16 12:43:49;;;;;;;2.03;0.52;;;16.90;52.50;;;;;;5112330;28;20023;-81
2023/05/16 12:46:15;;;;;;;2.17;0.65;;;16.80;51.80;;;;;;5113819;28;20055;-81